sensor_id;sensor_type;location;lat;lon;timestamp;P1;durP1;ratioP1;P2;durP2;ratioP2
35506;SDS011;36461;52.018;21.036;2023-11-19T00:00:30;31.30;;;20.00;;
35506;SDS011;36461;52.018;21.036;2023-11-19T00:03:18;32.60;;;19.80;;
35506;SDS011;36461;52.018;21.036;2023-11-19T00:05:47;33.80;;;20.30;;
35506;SDS011;36461;52.018;21.036;2023-11-19T00:08:15;29.90;;;19.50;;
35506;SDS011;36461;52.018;21.036;2023-11-19T00:10:43;32.70;;;20.10;;
35506;SDS011;36461;52.018;21.036;2023-11-19T00:13:12;30.30;;;20.20;;
35506;SDS011;36461;52.018;21.036;2023-11-19T00:15:40;35.30;;;21.30;;
35506;SDS011;36461;52.018;21.036;2023-11-19T00:18:08;32.30;;;19.90;;
35506;SDS011;36461;52.018;21.036;2023-11-19T00:20:36;30.70;;;19.90;;
35506;SDS011;36461;52.018;21.036;2023-11-19T00:23:04;27.80;;;18.40;;
35506;SDS011;36461;52.018;21.036;2023-11-19T00:25:33;28.60;;;19.50;;
35506;SDS011;36461;52.018;21.036;2023-11-19T00:28:01;28.10;;;18.40;;
35506;SDS011;36461;52.018;21.036;2023-11-19T00:30:29;27.80;;;18.50;;
35506;SDS011;36461;52.018;21.036;2023-11-19T00:32:59;29.80;;;18.30;;
35506;SDS011;36461;52.018;21.036;2023-11-19T00:35:27;30.00;;;19.80;;
35506;SDS011;36461;52.018;21.036;2023-11-19T00:37:55;30.30;;;19.60;;
35506;SDS011;36461;52.018;21.036;2023-11-19T00:40:24;31.00;;;19.00;;
35506;SDS011;36461;52.018;21.036;2023-11-19T00:42:52;28.90;;;19.00;;
35506;SDS011;36461;52.018;21.036;2023-11-19T00:45:20;28.80;;;18.60;;
35506;SDS011;36461;52.018;21.036;2023-11-19T00:47:49;29.90;;;18.70;;
35506;SDS011;36461;52.018;21.036;2023-11-19T00:50:17;30.30;;;18.40;;
35506;SDS011;36461;52.018;21.036;2023-11-19T00:52:46;31.00;;;19.80;;
35506;SDS011;36461;52.018;21.036;2023-11-19T00:55:15;30.40;;;19.10;;
35506;SDS011;36461;52.018;21.036;2023-11-19T00:57:44;30.60;;;19.70;;
35506;SDS011;36461;52.018;21.036;2023-11-19T01:00:12;30.30;;;19.60;;
35506;SDS011;36461;52.018;21.036;2023-11-19T01:02:48;32.60;;;20.70;;
35506;SDS011;36461;52.018;21.036;2023-11-19T01:05:20;30.90;;;20.10;;
35506;SDS011;36461;52.018;21.036;2023-11-19T01:07:51;31.90;;;19.90;;
35506;SDS011;36461;52.018;21.036;2023-11-19T01:10:23;30.00;;;19.30;;
35506;SDS011;36461;52.018;21.036;2023-11-19T01:12:52;27.70;;;18.70;;
35506;SDS011;36461;52.018;21.036;2023-11-19T01:15:21;30.60;;;18.60;;
35506;SDS011;36461;52.018;21.036;2023-11-19T01:17:51;31.60;;;20.20;;
35506;SDS011;36461;52.018;21.036;2023-11-19T01:20:21;32.20;;;20.30;;
35506;SDS011;36461;52.018;21.036;2023-11-19T01:22:50;31.90;;;19.70;;
35506;SDS011;36461;52.018;21.036;2023-11-19T01:25:19;34.20;;;20.80;;
35506;SDS011;36461;52.018;21.036;2023-11-19T01:27:47;33.10;;;20.80;;
35506;SDS011;36461;52.018;21.036;2023-11-19T01:30:16;43.00;;;21.40;;
35506;SDS011;36461;52.018;21.036;2023-11-19T01:32:45;33.20;;;20.20;;
35506;SDS011;36461;52.018;21.036;2023-11-19T01:35:13;33.30;;;19.70;;
35506;SDS011;36461;52.018;21.036;2023-11-19T01:37:42;35.70;;;20.60;;
35506;SDS011;36461;52.018;21.036;2023-11-19T01:40:10;32.60;;;20.40;;
35506;SDS011;36461;52.018;21.036;2023-11-19T01:42:40;35.50;;;20.10;;
35506;SDS011;36461;52.018;21.036;2023-11-19T01:45:09;35.50;;;21.70;;
35506;SDS011;36461;52.018;21.036;2023-11-19T01:47:46;35.60;;;20.50;;
35506;SDS011;36461;52.018;21.036;2023-11-19T01:50:14;35.60;;;21.10;;
35506;SDS011;36461;52.018;21.036;2023-11-19T01:52:43;33.60;;;19.60;;
35506;SDS011;36461;52.018;21.036;2023-11-19T01:55:11;38.10;;;22.10;;
35506;SDS011;36461;52.018;21.036;2023-11-19T01:57:40;36.90;;;21.20;;
35506;SDS011;36461;52.018;21.036;2023-11-19T02:00:09;39.70;;;22.30;;
35506;SDS011;36461;52.018;21.036;2023-11-19T02:02:43;40.10;;;22.70;;
35506;SDS011;36461;52.018;21.036;2023-11-19T02:05:14;38.20;;;22.10;;
35506;SDS011;36461;52.018;21.036;2023-11-19T02:07:43;35.40;;;22.20;;
35506;SDS011;36461;52.018;21.036;2023-11-19T02:10:11;38.40;;;21.80;;
35506;SDS011;36461;52.018;21.036;2023-11-19T02:12:42;36.70;;;22.10;;
35506;SDS011;36461;52.018;21.036;2023-11-19T02:15:11;34.80;;;20.40;;
35506;SDS011;36461;52.018;21.036;2023-11-19T02:17:39;35.50;;;21.00;;
35506;SDS011;36461;52.018;21.036;2023-11-19T02:20:08;34.00;;;20.70;;
35506;SDS011;36461;52.018;21.036;2023-11-19T02:22:40;36.10;;;21.20;;
35506;SDS011;36461;52.018;21.036;2023-11-19T02:25:17;36.10;;;21.20;;
35506;SDS011;36461;52.018;21.036;2023-11-19T02:27:54;33.90;;;20.80;;
35506;SDS011;36461;52.018;21.036;2023-11-19T02:30:25;33.40;;;20.10;;
35506;SDS011;36461;52.018;21.036;2023-11-19T02:32:56;32.80;;;20.50;;
35506;SDS011;36461;52.018;21.036;2023-11-19T02:35:33;33.20;;;19.50;;
35506;SDS011;36461;52.018;21.036;2023-11-19T02:38:02;31.20;;;19.90;;
35506;SDS011;36461;52.018;21.036;2023-11-19T02:40:35;29.50;;;19.30;;
35506;SDS011;36461;52.018;21.036;2023-11-19T02:43:03;33.90;;;20.50;;
35506;SDS011;36461;52.018;21.036;2023-11-19T02:45:33;32.70;;;20.10;;
35506;SDS011;36461;52.018;21.036;2023-11-19T02:48:01;30.00;;;19.50;;
35506;SDS011;36461;52.018;21.036;2023-11-19T02:50:29;31.10;;;19.70;;
35506;SDS011;36461;52.018;21.036;2023-11-19T02:52:59;32.40;;;19.70;;
35506;SDS011;36461;52.018;21.036;2023-11-19T02:55:29;32.30;;;19.40;;
35506;SDS011;36461;52.018;21.036;2023-11-19T02:58:04;33.10;;;19.40;;
35506;SDS011;36461;52.018;21.036;2023-11-19T03:00:47;30.50;;;18.70;;
35506;SDS011;36461;52.018;21.036;2023-11-19T03:03:23;31.50;;;19.80;;
35506;SDS011;36461;52.018;21.036;2023-11-19T03:06:07;31.20;;;18.80;;
35506;SDS011;36461;52.018;21.036;2023-11-19T03:08:37;29.60;;;18.40;;
35506;SDS011;36461;52.018;21.036;2023-11-19T03:11:05;33.50;;;20.10;;
35506;SDS011;36461;52.018;21.036;2023-11-19T03:13:33;31.50;;;19.60;;
35506;SDS011;36461;52.018;21.036;2023-11-19T03:16:01;33.30;;;20.10;;
35506;SDS011;36461;52.018;21.036;2023-11-19T03:18:30;33.40;;;20.50;;
35506;SDS011;36461;52.018;21.036;2023-11-19T03:20:58;35.90;;;20.70;;
35506;SDS011;36461;52.018;21.036;2023-11-19T03:23:26;31.60;;;20.30;;
35506;SDS011;36461;52.018;21.036;2023-11-19T03:25:57;33.20;;;21.10;;
35506;SDS011;36461;52.018;21.036;2023-11-19T03:28:25;34.30;;;20.90;;
35506;SDS011;36461;52.018;21.036;2023-11-19T03:30:54;37.00;;;20.70;;
35506;SDS011;36461;52.018;21.036;2023-11-19T03:33:23;34.70;;;20.40;;
35506;SDS011;36461;52.018;21.036;2023-11-19T03:35:51;36.40;;;21.00;;
35506;SDS011;36461;52.018;21.036;2023-11-19T03:38:19;38.10;;;21.10;;
35506;SDS011;36461;52.018;21.036;2023-11-19T03:40:48;36.50;;;21.00;;
35506;SDS011;36461;52.018;21.036;2023-11-19T03:43:16;35.60;;;20.70;;
35506;SDS011;36461;52.018;21.036;2023-11-19T03:45:47;32.50;;;19.60;;
35506;SDS011;36461;52.018;21.036;2023-11-19T03:48:15;33.00;;;19.80;;
35506;SDS011;36461;52.018;21.036;2023-11-19T03:50:44;34.30;;;21.00;;
35506;SDS011;36461;52.018;21.036;2023-11-19T03:53:12;36.10;;;20.60;;
35506;SDS011;36461;52.018;21.036;2023-11-19T03:55:41;35.20;;;20.80;;
35506;SDS011;36461;52.018;21.036;2023-11-19T03:58:10;36.50;;;21.60;;
35506;SDS011;36461;52.018;21.036;2023-11-19T04:00:38;35.90;;;20.20;;
35506;SDS011;36461;52.018;21.036;2023-11-19T04:03:06;36.90;;;21.00;;
35506;SDS011;36461;52.018;21.036;2023-11-19T04:05:35;35.60;;;21.40;;
35506;SDS011;36461;52.018;21.036;2023-11-19T04:08:03;34.70;;;20.90;;
35506;SDS011;36461;52.018;21.036;2023-11-19T04:10:31;34.60;;;20.90;;
35506;SDS011;36461;52.018;21.036;2023-11-19T04:12:59;35.30;;;21.00;;
35506;SDS011;36461;52.018;21.036;2023-11-19T04:15:27;34.10;;;20.20;;
35506;SDS011;36461;52.018;21.036;2023-11-19T04:17:56;38.10;;;20.40;;
35506;SDS011;36461;52.018;21.036;2023-11-19T04:20:25;34.70;;;20.10;;
35506;SDS011;36461;52.018;21.036;2023-11-19T04:22:53;36.20;;;22.30;;
35506;SDS011;36461;52.018;21.036;2023-11-19T04:25:22;37.40;;;21.80;;
35506;SDS011;36461;52.018;21.036;2023-11-19T04:27:53;35.90;;;20.90;;
35506;SDS011;36461;52.018;21.036;2023-11-19T04:30:21;36.30;;;21.60;;
35506;SDS011;36461;52.018;21.036;2023-11-19T04:32:50;35.50;;;21.00;;
35506;SDS011;36461;52.018;21.036;2023-11-19T04:35:18;35.90;;;20.70;;
35506;SDS011;36461;52.018;21.036;2023-11-19T04:37:47;38.00;;;21.00;;
35506;SDS011;36461;52.018;21.036;2023-11-19T04:40:15;37.40;;;21.70;;
35506;SDS011;36461;52.018;21.036;2023-11-19T04:42:44;33.20;;;20.70;;
35506;SDS011;36461;52.018;21.036;2023-11-19T04:45:12;32.10;;;18.90;;
35506;SDS011;36461;52.018;21.036;2023-11-19T04:47:41;34.20;;;21.30;;
35506;SDS011;36461;52.018;21.036;2023-11-19T04:50:09;33.00;;;19.50;;
35506;SDS011;36461;52.018;21.036;2023-11-19T04:52:38;32.40;;;19.30;;
35506;SDS011;36461;52.018;21.036;2023-11-19T04:55:12;31.10;;;18.90;;
35506;SDS011;36461;52.018;21.036;2023-11-19T04:57:42;31.40;;;17.90;;
35506;SDS011;36461;52.018;21.036;2023-11-19T05:00:11;29.50;;;18.70;;
35506;SDS011;36461;52.018;21.036;2023-11-19T05:02:43;33.30;;;18.80;;
35506;SDS011;36461;52.018;21.036;2023-11-19T05:05:11;31.10;;;18.90;;
35506;SDS011;36461;52.018;21.036;2023-11-19T05:07:40;28.20;;;17.90;;
35506;SDS011;36461;52.018;21.036;2023-11-19T05:10:09;34.40;;;19.40;;
35506;SDS011;36461;52.018;21.036;2023-11-19T05:12:37;31.00;;;18.40;;
35506;SDS011;36461;52.018;21.036;2023-11-19T05:15:07;29.60;;;18.40;;
35506;SDS011;36461;52.018;21.036;2023-11-19T05:17:35;30.00;;;18.50;;
35506;SDS011;36461;52.018;21.036;2023-11-19T05:20:05;30.40;;;18.30;;
35506;SDS011;36461;52.018;21.036;2023-11-19T05:22:41;30.20;;;18.20;;
35506;SDS011;36461;52.018;21.036;2023-11-19T05:25:10;27.00;;;16.70;;
35506;SDS011;36461;52.018;21.036;2023-11-19T05:27:39;27.70;;;17.50;;
35506;SDS011;36461;52.018;21.036;2023-11-19T05:30:07;24.40;;;15.70;;
35506;SDS011;36461;52.018;21.036;2023-11-19T05:32:36;24.60;;;15.50;;
35506;SDS011;36461;52.018;21.036;2023-11-19T05:35:04;24.60;;;16.50;;
35506;SDS011;36461;52.018;21.036;2023-11-19T05:37:33;24.80;;;15.50;;
35506;SDS011;36461;52.018;21.036;2023-11-19T05:40:02;23.90;;;15.30;;
35506;SDS011;36461;52.018;21.036;2023-11-19T05:42:32;21.70;;;13.80;;
35506;SDS011;36461;52.018;21.036;2023-11-19T05:45:00;16.90;;;11.50;;
35506;SDS011;36461;52.018;21.036;2023-11-19T05:47:28;16.80;;;11.10;;
35506;SDS011;36461;52.018;21.036;2023-11-19T05:49:56;13.80;;;9.40;;
35506;SDS011;36461;52.018;21.036;2023-11-19T05:52:24;13.70;;;9.60;;
35506;SDS011;36461;52.018;21.036;2023-11-19T05:54:53;13.30;;;9.30;;
35506;SDS011;36461;52.018;21.036;2023-11-19T05:57:21;12.50;;;8.50;;
35506;SDS011;36461;52.018;21.036;2023-11-19T05:59:51;11.70;;;8.00;;
35506;SDS011;36461;52.018;21.036;2023-11-19T06:02:21;11.50;;;8.20;;
35506;SDS011;36461;52.018;21.036;2023-11-19T06:04:49;10.00;;;7.20;;
35506;SDS011;36461;52.018;21.036;2023-11-19T06:07:17;10.70;;;7.80;;
35506;SDS011;36461;52.018;21.036;2023-11-19T06:09:45;11.70;;;8.60;;
35506;SDS011;36461;52.018;21.036;2023-11-19T06:12:14;10.60;;;7.60;;
35506;SDS011;36461;52.018;21.036;2023-11-19T06:14:42;10.90;;;8.20;;
35506;SDS011;36461;52.018;21.036;2023-11-19T06:17:10;10.00;;;7.00;;
35506;SDS011;36461;52.018;21.036;2023-11-19T06:19:39;11.30;;;7.40;;
35506;SDS011;36461;52.018;21.036;2023-11-19T06:22:07;10.30;;;7.90;;
35506;SDS011;36461;52.018;21.036;2023-11-19T06:24:35;8.70;;;6.80;;
35506;SDS011;36461;52.018;21.036;2023-11-19T06:27:06;10.60;;;7.90;;
35506;SDS011;36461;52.018;21.036;2023-11-19T06:29:34;11.70;;;7.60;;
35506;SDS011;36461;52.018;21.036;2023-11-19T06:32:03;14.00;;;9.80;;
35506;SDS011;36461;52.018;21.036;2023-11-19T06:34:41;14.40;;;10.80;;
35506;SDS011;36461;52.018;21.036;2023-11-19T06:37:10;12.50;;;9.60;;
35506;SDS011;36461;52.018;21.036;2023-11-19T06:39:38;14.10;;;11.00;;
35506;SDS011;36461;52.018;21.036;2023-11-19T06:42:06;13.90;;;10.10;;
35506;SDS011;36461;52.018;21.036;2023-11-19T06:44:35;29.00;;;18.30;;
35506;SDS011;36461;52.018;21.036;2023-11-19T06:47:03;15.10;;;11.20;;
35506;SDS011;36461;52.018;21.036;2023-11-19T06:49:31;14.20;;;9.80;;
35506;SDS011;36461;52.018;21.036;2023-11-19T06:51:59;13.60;;;9.80;;
35506;SDS011;36461;52.018;21.036;2023-11-19T06:54:28;15.40;;;10.10;;
35506;SDS011;36461;52.018;21.036;2023-11-19T06:56:56;14.80;;;9.90;;
35506;SDS011;36461;52.018;21.036;2023-11-19T06:59:25;12.60;;;9.40;;
35506;SDS011;36461;52.018;21.036;2023-11-19T07:01:53;14.90;;;10.90;;
35506;SDS011;36461;52.018;21.036;2023-11-19T07:04:22;14.10;;;9.80;;
35506;SDS011;36461;52.018;21.036;2023-11-19T07:06:50;13.70;;;9.20;;
35506;SDS011;36461;52.018;21.036;2023-11-19T07:09:20;15.00;;;9.70;;
35506;SDS011;36461;52.018;21.036;2023-11-19T07:11:49;13.60;;;9.70;;
35506;SDS011;36461;52.018;21.036;2023-11-19T07:14:19;13.80;;;9.80;;
35506;SDS011;36461;52.018;21.036;2023-11-19T07:16:47;13.80;;;9.60;;
35506;SDS011;36461;52.018;21.036;2023-11-19T07:19:16;13.60;;;10.10;;
35506;SDS011;36461;52.018;21.036;2023-11-19T07:21:44;15.40;;;10.50;;
35506;SDS011;36461;52.018;21.036;2023-11-19T07:24:12;15.90;;;10.60;;
35506;SDS011;36461;52.018;21.036;2023-11-19T07:26:42;17.00;;;10.90;;
35506;SDS011;36461;52.018;21.036;2023-11-19T07:29:11;15.90;;;11.20;;
35506;SDS011;36461;52.018;21.036;2023-11-19T07:31:40;18.00;;;12.10;;
35506;SDS011;36461;52.018;21.036;2023-11-19T07:34:08;14.70;;;10.80;;
35506;SDS011;36461;52.018;21.036;2023-11-19T07:36:37;16.20;;;11.70;;
35506;SDS011;36461;52.018;21.036;2023-11-19T07:39:05;14.30;;;10.20;;
35506;SDS011;36461;52.018;21.036;2023-11-19T07:41:34;14.80;;;9.90;;
35506;SDS011;36461;52.018;21.036;2023-11-19T07:44:05;14.20;;;10.40;;
35506;SDS011;36461;52.018;21.036;2023-11-19T07:46:34;15.40;;;11.10;;
35506;SDS011;36461;52.018;21.036;2023-11-19T07:49:02;17.30;;;11.20;;
35506;SDS011;36461;52.018;21.036;2023-11-19T07:51:30;14.90;;;11.00;;
35506;SDS011;36461;52.018;21.036;2023-11-19T07:53:59;15.90;;;11.30;;
35506;SDS011;36461;52.018;21.036;2023-11-19T07:56:27;16.90;;;12.10;;
35506;SDS011;36461;52.018;21.036;2023-11-19T07:58:56;17.70;;;12.10;;
35506;SDS011;36461;52.018;21.036;2023-11-19T08:01:24;17.20;;;11.10;;
35506;SDS011;36461;52.018;21.036;2023-11-19T08:03:52;17.40;;;11.50;;
35506;SDS011;36461;52.018;21.036;2023-11-19T08:06:23;16.50;;;12.00;;
35506;SDS011;36461;52.018;21.036;2023-11-19T08:08:52;15.90;;;11.00;;
35506;SDS011;36461;52.018;21.036;2023-11-19T08:11:20;16.10;;;11.30;;
35506;SDS011;36461;52.018;21.036;2023-11-19T08:13:50;17.10;;;11.60;;
35506;SDS011;36461;52.018;21.036;2023-11-19T08:16:19;17.30;;;11.50;;
35506;SDS011;36461;52.018;21.036;2023-11-19T08:18:47;17.00;;;11.70;;
35506;SDS011;36461;52.018;21.036;2023-11-19T08:21:15;17.40;;;12.00;;
35506;SDS011;36461;52.018;21.036;2023-11-19T08:23:43;17.10;;;12.00;;
35506;SDS011;36461;52.018;21.036;2023-11-19T08:26:12;16.10;;;11.00;;
35506;SDS011;36461;52.018;21.036;2023-11-19T08:28:43;14.30;;;10.00;;
35506;SDS011;36461;52.018;21.036;2023-11-19T08:31:11;15.10;;;10.60;;
35506;SDS011;36461;52.018;21.036;2023-11-19T08:33:39;15.10;;;10.50;;
35506;SDS011;36461;52.018;21.036;2023-11-19T08:36:08;14.60;;;10.30;;
35506;SDS011;36461;52.018;21.036;2023-11-19T08:38:36;16.90;;;10.30;;
35506;SDS011;36461;52.018;21.036;2023-11-19T08:41:04;17.70;;;12.60;;
35506;SDS011;36461;52.018;21.036;2023-11-19T08:43:33;16.00;;;12.30;;
35506;SDS011;36461;52.018;21.036;2023-11-19T08:46:02;16.90;;;11.60;;
35506;SDS011;36461;52.018;21.036;2023-11-19T08:48:30;15.30;;;11.80;;
35506;SDS011;36461;52.018;21.036;2023-11-19T08:50:58;19.00;;;11.70;;
35506;SDS011;36461;52.018;21.036;2023-11-19T08:53:27;16.20;;;11.20;;
35506;SDS011;36461;52.018;21.036;2023-11-19T08:55:55;15.20;;;10.80;;
35506;SDS011;36461;52.018;21.036;2023-11-19T08:58:23;16.50;;;11.20;;
35506;SDS011;36461;52.018;21.036;2023-11-19T09:00:51;15.00;;;11.00;;
35506;SDS011;36461;52.018;21.036;2023-11-19T09:03:19;14.50;;;11.30;;
35506;SDS011;36461;52.018;21.036;2023-11-19T09:05:48;14.50;;;10.40;;
35506;SDS011;36461;52.018;21.036;2023-11-19T09:08:16;15.90;;;10.90;;
35506;SDS011;36461;52.018;21.036;2023-11-19T09:10:44;16.10;;;10.30;;
35506;SDS011;36461;52.018;21.036;2023-11-19T09:13:13;15.90;;;11.90;;
35506;SDS011;36461;52.018;21.036;2023-11-19T09:15:41;16.10;;;11.20;;
35506;SDS011;36461;52.018;21.036;2023-11-19T09:18:10;17.20;;;12.30;;
35506;SDS011;36461;52.018;21.036;2023-11-19T09:20:38;15.50;;;11.00;;
35506;SDS011;36461;52.018;21.036;2023-11-19T09:23:07;19.30;;;12.00;;
35506;SDS011;36461;52.018;21.036;2023-11-19T09:25:37;18.70;;;12.30;;
35506;SDS011;36461;52.018;21.036;2023-11-19T09:28:08;18.00;;;12.40;;
35506;SDS011;36461;52.018;21.036;2023-11-19T09:30:37;18.10;;;12.70;;
35506;SDS011;36461;52.018;21.036;2023-11-19T09:33:05;18.90;;;12.80;;
35506;SDS011;36461;52.018;21.036;2023-11-19T09:35:33;16.90;;;12.50;;
35506;SDS011;36461;52.018;21.036;2023-11-19T09:38:02;17.70;;;12.10;;
35506;SDS011;36461;52.018;21.036;2023-11-19T09:40:32;19.00;;;12.30;;
35506;SDS011;36461;52.018;21.036;2023-11-19T09:43:00;18.50;;;12.70;;
35506;SDS011;36461;52.018;21.036;2023-11-19T09:45:29;17.20;;;11.90;;
35506;SDS011;36461;52.018;21.036;2023-11-19T09:48:08;17.30;;;12.50;;
35506;SDS011;36461;52.018;21.036;2023-11-19T09:50:37;17.50;;;12.20;;
35506;SDS011;36461;52.018;21.036;2023-11-19T09:53:07;16.20;;;11.80;;
35506;SDS011;36461;52.018;21.036;2023-11-19T09:55:35;18.70;;;13.00;;
35506;SDS011;36461;52.018;21.036;2023-11-19T09:58:04;18.90;;;13.10;;
35506;SDS011;36461;52.018;21.036;2023-11-19T10:00:34;17.50;;;12.30;;
35506;SDS011;36461;52.018;21.036;2023-11-19T10:03:02;17.10;;;12.30;;
35506;SDS011;36461;52.018;21.036;2023-11-19T10:05:33;16.90;;;12.20;;
35506;SDS011;36461;52.018;21.036;2023-11-19T10:08:01;17.70;;;12.30;;
35506;SDS011;36461;52.018;21.036;2023-11-19T10:10:30;16.60;;;12.50;;
35506;SDS011;36461;52.018;21.036;2023-11-19T10:12:58;16.50;;;11.80;;
35506;SDS011;36461;52.018;21.036;2023-11-19T10:15:28;18.40;;;12.70;;
35506;SDS011;36461;52.018;21.036;2023-11-19T10:18:03;17.10;;;11.90;;
35506;SDS011;36461;52.018;21.036;2023-11-19T10:20:40;18.70;;;12.50;;
35506;SDS011;36461;52.018;21.036;2023-11-19T10:23:09;18.30;;;14.10;;
35506;SDS011;36461;52.018;21.036;2023-11-19T10:25:38;15.20;;;12.00;;
35506;SDS011;36461;52.018;21.036;2023-11-19T10:28:06;18.00;;;12.30;;
35506;SDS011;36461;52.018;21.036;2023-11-19T10:30:34;19.30;;;15.10;;
35506;SDS011;36461;52.018;21.036;2023-11-19T10:33:03;21.90;;;15.50;;
35506;SDS011;36461;52.018;21.036;2023-11-19T10:35:51;20.20;;;13.00;;
35506;SDS011;36461;52.018;21.036;2023-11-19T10:38:29;17.40;;;13.30;;
35506;SDS011;36461;52.018;21.036;2023-11-19T10:40:58;22.80;;;15.60;;
35506;SDS011;36461;52.018;21.036;2023-11-19T10:43:27;18.90;;;13.60;;
35506;SDS011;36461;52.018;21.036;2023-11-19T10:46:08;20.50;;;14.80;;
35506;SDS011;36461;52.018;21.036;2023-11-19T10:48:38;21.10;;;14.90;;
35506;SDS011;36461;52.018;21.036;2023-11-19T10:51:07;22.10;;;15.50;;
35506;SDS011;36461;52.018;21.036;2023-11-19T10:53:37;21.80;;;15.00;;
35506;SDS011;36461;52.018;21.036;2023-11-19T10:56:10;21.00;;;14.30;;
35506;SDS011;36461;52.018;21.036;2023-11-19T10:58:40;22.50;;;17.20;;
35506;SDS011;36461;52.018;21.036;2023-11-19T11:01:13;21.40;;;14.80;;
35506;SDS011;36461;52.018;21.036;2023-11-19T11:03:46;22.40;;;16.00;;
35506;SDS011;36461;52.018;21.036;2023-11-19T11:06:15;23.20;;;15.20;;
35506;SDS011;36461;52.018;21.036;2023-11-19T11:08:44;20.50;;;14.90;;
35506;SDS011;36461;52.018;21.036;2023-11-19T11:11:15;20.70;;;14.70;;
35506;SDS011;36461;52.018;21.036;2023-11-19T11:13:49;20.00;;;14.30;;
35506;SDS011;36461;52.018;21.036;2023-11-19T11:16:18;23.20;;;16.60;;
35506;SDS011;36461;52.018;21.036;2023-11-19T11:18:50;23.00;;;16.10;;
35506;SDS011;36461;52.018;21.036;2023-11-19T11:21:22;23.40;;;15.90;;
35506;SDS011;36461;52.018;21.036;2023-11-19T11:33:05;24.00;;;15.30;;
35506;SDS011;36461;52.018;21.036;2023-11-19T11:38:29;25.20;;;17.20;;
35506;SDS011;36461;52.018;21.036;2023-11-19T11:41:15;23.40;;;16.70;;
35506;SDS011;36461;52.018;21.036;2023-11-19T11:43:55;21.20;;;14.90;;
35506;SDS011;36461;52.018;21.036;2023-11-19T11:49:07;19.60;;;13.80;;
35506;SDS011;36461;52.018;21.036;2023-11-19T11:51:57;19.40;;;13.30;;
35506;SDS011;36461;52.018;21.036;2023-11-19T11:57:02;18.00;;;12.30;;
35506;SDS011;36461;52.018;21.036;2023-11-19T11:59:40;18.70;;;13.00;;
35506;SDS011;36461;52.018;21.036;2023-11-19T12:02:28;19.10;;;12.90;;
35506;SDS011;36461;52.018;21.036;2023-11-19T12:04:57;19.50;;;12.90;;
35506;SDS011;36461;52.018;21.036;2023-11-19T12:07:26;23.90;;;13.90;;
35506;SDS011;36461;52.018;21.036;2023-11-19T12:10:28;19.40;;;13.30;;
35506;SDS011;36461;52.018;21.036;2023-11-19T12:12:52;21.50;;;13.10;;
35506;SDS011;36461;52.018;21.036;2023-11-19T12:15:21;20.60;;;13.70;;
35506;SDS011;36461;52.018;21.036;2023-11-19T12:17:55;21.30;;;14.10;;
35506;SDS011;36461;52.018;21.036;2023-11-19T12:20:24;21.60;;;14.80;;
35506;SDS011;36461;52.018;21.036;2023-11-19T12:22:56;18.30;;;13.50;;
35506;SDS011;36461;52.018;21.036;2023-11-19T12:25:25;20.60;;;13.70;;
35506;SDS011;36461;52.018;21.036;2023-11-19T12:27:53;19.50;;;14.00;;
35506;SDS011;36461;52.018;21.036;2023-11-19T12:30:25;19.60;;;14.50;;
35506;SDS011;36461;52.018;21.036;2023-11-19T12:32:54;20.30;;;13.80;;
35506;SDS011;36461;52.018;21.036;2023-11-19T12:35:23;23.80;;;14.80;;
35506;SDS011;36461;52.018;21.036;2023-11-19T12:37:52;19.70;;;14.20;;
35506;SDS011;36461;52.018;21.036;2023-11-19T12:40:22;17.90;;;13.30;;
35506;SDS011;36461;52.018;21.036;2023-11-19T12:42:52;22.20;;;15.00;;
35506;SDS011;36461;52.018;21.036;2023-11-19T12:45:22;21.70;;;14.80;;
35506;SDS011;36461;52.018;21.036;2023-11-19T12:48:06;23.60;;;15.20;;
35506;SDS011;36461;52.018;21.036;2023-11-19T12:53:26;21.30;;;14.60;;
35506;SDS011;36461;52.018;21.036;2023-11-19T12:55:55;22.50;;;14.50;;
35506;SDS011;36461;52.018;21.036;2023-11-19T12:58:34;20.50;;;14.00;;
35506;SDS011;36461;52.018;21.036;2023-11-19T13:01:06;20.50;;;14.40;;
35506;SDS011;36461;52.018;21.036;2023-11-19T13:03:36;19.50;;;14.20;;
35506;SDS011;36461;52.018;21.036;2023-11-19T13:06:08;18.30;;;13.00;;
35506;SDS011;36461;52.018;21.036;2023-11-19T13:08:43;21.00;;;14.20;;
35506;SDS011;36461;52.018;21.036;2023-11-19T13:11:13;21.80;;;14.90;;
35506;SDS011;36461;52.018;21.036;2023-11-19T13:13:55;19.20;;;13.10;;
35506;SDS011;36461;52.018;21.036;2023-11-19T13:16:24;19.10;;;13.90;;
35506;SDS011;36461;52.018;21.036;2023-11-19T13:18:54;20.40;;;13.30;;
35506;SDS011;36461;52.018;21.036;2023-11-19T13:21:23;19.20;;;13.30;;
35506;SDS011;36461;52.018;21.036;2023-11-19T13:23:52;20.10;;;13.50;;
35506;SDS011;36461;52.018;21.036;2023-11-19T13:26:21;16.90;;;12.00;;
35506;SDS011;36461;52.018;21.036;2023-11-19T13:28:49;17.10;;;12.40;;
35506;SDS011;36461;52.018;21.036;2023-11-19T13:31:17;17.80;;;12.70;;
35506;SDS011;36461;52.018;21.036;2023-11-19T13:33:46;17.90;;;12.90;;
35506;SDS011;36461;52.018;21.036;2023-11-19T13:36:14;19.90;;;14.10;;
35506;SDS011;36461;52.018;21.036;2023-11-19T13:38:44;21.40;;;15.10;;
35506;SDS011;36461;52.018;21.036;2023-11-19T13:41:13;21.00;;;14.60;;
35506;SDS011;36461;52.018;21.036;2023-11-19T13:43:41;20.10;;;14.50;;
35506;SDS011;36461;52.018;21.036;2023-11-19T13:46:09;21.30;;;14.40;;
35506;SDS011;36461;52.018;21.036;2023-11-19T13:48:38;21.60;;;15.50;;
35506;SDS011;36461;52.018;21.036;2023-11-19T13:51:07;22.50;;;14.80;;
35506;SDS011;36461;52.018;21.036;2023-11-19T13:53:35;19.30;;;13.80;;
35506;SDS011;36461;52.018;21.036;2023-11-19T13:56:06;20.00;;;13.40;;
35506;SDS011;36461;52.018;21.036;2023-11-19T13:58:35;20.50;;;14.10;;
35506;SDS011;36461;52.018;21.036;2023-11-19T14:01:03;21.10;;;13.80;;
35506;SDS011;36461;52.018;21.036;2023-11-19T14:03:32;20.30;;;13.40;;
35506;SDS011;36461;52.018;21.036;2023-11-19T14:06:02;19.60;;;13.90;;
35506;SDS011;36461;52.018;21.036;2023-11-19T14:08:30;20.70;;;14.20;;
35506;SDS011;36461;52.018;21.036;2023-11-19T14:10:58;21.80;;;14.30;;
35506;SDS011;36461;52.018;21.036;2023-11-19T14:13:27;23.50;;;14.80;;
35506;SDS011;36461;52.018;21.036;2023-11-19T14:15:55;22.90;;;15.80;;
35506;SDS011;36461;52.018;21.036;2023-11-19T14:18:23;21.40;;;14.40;;
35506;SDS011;36461;52.018;21.036;2023-11-19T14:20:51;22.20;;;14.30;;
35506;SDS011;36461;52.018;21.036;2023-11-19T14:23:20;20.50;;;13.80;;
35506;SDS011;36461;52.018;21.036;2023-11-19T14:25:48;21.10;;;14.10;;
35506;SDS011;36461;52.018;21.036;2023-11-19T14:28:17;20.00;;;13.80;;
35506;SDS011;36461;52.018;21.036;2023-11-19T14:30:45;20.90;;;14.60;;
35506;SDS011;36461;52.018;21.036;2023-11-19T14:33:16;21.50;;;15.10;;
35506;SDS011;36461;52.018;21.036;2023-11-19T14:35:44;23.30;;;14.40;;
35506;SDS011;36461;52.018;21.036;2023-11-19T14:38:12;22.50;;;14.30;;
35506;SDS011;36461;52.018;21.036;2023-11-19T14:40:40;22.20;;;14.30;;
35506;SDS011;36461;52.018;21.036;2023-11-19T14:43:10;25.00;;;14.40;;
35506;SDS011;36461;52.018;21.036;2023-11-19T14:45:38;21.80;;;14.70;;